Time;durP1;ratioP1;P1;durP2;ratioP2;P2;SDS_P1;SDS_P2;PMS_P1;PMS_P2;Temp;Humidity;BMP_temperature;BMP_pressure;BME280_temperature;BME280_humidity;BME280_pressure;Samples;Min_cycle;Max_cycle;Signal;HPM_P1;HPM_P2
2022/12/07 00:01:13;;;;;;;34.92;15.25;;;7.10;99.90;;;;;;5031038;28;20490;-78
2022/12/07 00:03:40;;;;;;;29.13;15.15;;;7.20;99.90;;;;;;5031173;28;20053;-77
2022/12/07 00:06:07;;;;;;;30.33;15.35;;;7.10;99.90;;;;;;5032017;28;20072;-79
2022/12/07 00:08:34;;;;;;;32.78;15.23;;;7.20;99.90;;;;;;5031046;28;20029;-76
2022/12/07 00:11:08;;;;;;;31.63;14.57;;;7.20;99.90;;;;;;5031093;28;20030;-79
2022/12/07 00:13:34;;;;;;;28.42;14.88;;;7.20;99.90;;;;;;5031281;28;20137;-80
2022/12/07 00:16:06;;;;;;;30.95;13.52;;;7.10;99.90;;;;;;5031200;28;20432;-79
2022/12/07 00:18:32;;;;;;;33.83;14.95;;;7.20;99.90;;;;;;5030088;28;20067;-79
2022/12/07 00:21:15;;;;;;;31.88;14.50;;;7.20;99.90;;;;;;5031383;28;20053;-78
2022/12/07 00:23:43;;;;;;;32.03;15.15;;;7.20;99.90;;;;;;5031154;28;20471;-77
2022/12/07 00:26:36;;;;;;;32.80;14.30;;;7.30;99.90;;;;;;5029869;28;20040;-77
2022/12/07 00:29:05;;;;;;;33.90;16.10;;;7.20;99.90;;;;;;5029598;28;20037;-78
2022/12/07 00:31:35;;;;;;;33.35;14.98;;;7.30;99.90;;;;;;5030731;28;20029;-77
2022/12/07 00:34:01;;;;;;;29.13;14.70;;;7.20;99.90;;;;;;5031233;28;20054;-77
2022/12/07 00:36:27;;;;;;;28.90;14.13;;;7.20;99.90;;;;;;5029889;28;20463;-77
2022/12/07 00:38:54;;;;;;;67.85;32.97;;;7.20;99.90;;;;;;5031127;28;20021;-77
2022/12/07 00:41:23;;;;;;;86.45;41.97;;;7.20;99.90;;;;;;5030751;28;20057;-77
2022/12/07 00:43:49;;;;;;;28.80;15.57;;;7.20;99.90;;;;;;5030659;28;20468;-76
2022/12/07 00:46:17;;;;;;;28.15;15.10;;;7.20;99.90;;;;;;5030783;28;20038;-77
2022/12/07 00:48:43;;;;;;;32.38;15.13;;;7.20;99.90;;;;;;5029701;28;20125;-77
2022/12/07 00:51:11;;;;;;;27.30;13.52;;;7.10;99.90;;;;;;5031168;28;20444;-77
2022/12/07 00:53:38;;;;;;;30.42;13.30;;;7.30;99.90;;;;;;5029666;28;20545;-76
2022/12/07 00:56:16;;;;;;;24.52;12.63;;;7.20;99.90;;;;;;5029540;28;20239;-77
2022/12/07 00:58:42;;;;;;;28.08;14.10;;;7.20;99.90;;;;;;5029754;28;20119;-77
2022/12/07 01:01:09;;;;;;;24.45;13.40;;;7.10;99.90;;;;;;5032888;28;20065;-76
2022/12/07 01:03:34;;;;;;;24.90;13.93;;;7.10;99.90;;;;;;5034106;28;20025;-78
2022/12/07 01:06:02;;;;;;;25.95;12.85;;;7.20;99.90;;;;;;5033878;28;20348;-78
2022/12/07 01:08:28;;;;;;;33.88;15.68;;;7.10;99.90;;;;;;5033127;28;20038;-77
2022/12/07 01:11:02;;;;;;;30.05;15.70;;;7.20;99.90;;;;;;5034215;28;20034;-77
2022/12/07 01:13:28;;;;;;;30.55;14.38;;;7.10;99.90;;;;;;5032892;28;20112;-77
2022/12/07 01:15:59;;;;;;;24.50;13.02;;;7.20;99.90;;;;;;5034081;28;20033;-76
2022/12/07 01:18:26;;;;;;;24.05;13.07;;;7.20;99.90;;;;;;5033924;28;20033;-76
2022/12/07 01:21:02;;;;;;;26.45;13.70;;;7.00;99.90;;;;;;5034626;28;20485;-76
2022/12/07 01:23:28;;;;;;;26.98;13.95;;;7.00;99.90;;;;;;5033003;28;20037;-77
2022/12/07 01:25:58;;;;;;;28.17;13.43;;;7.10;99.90;;;;;;5033904;28;20033;-78
2022/12/07 01:28:25;;;;;;;23.83;13.75;;;7.10;99.90;;;;;;5033783;28;20052;-77
2022/12/07 01:31:02;;;;;;;29.48;15.57;;;7.20;99.90;;;;;;5032725;28;20021;-77
2022/12/07 01:33:30;;;;;;;27.67;14.50;;;6.90;99.90;;;;;;5033574;28;20100;-76
2022/12/07 01:36:08;;;;;;;30.55;15.55;;;6.90;99.90;;;;;;5034488;28;20013;-78
2022/12/07 01:38:34;;;;;;;28.08;15.32;;;7.00;99.90;;;;;;5033606;28;20082;-77
2022/12/07 01:41:02;;;;;;;26.92;15.70;;;6.90;99.90;;;;;;5032355;28;20034;-79
2022/12/07 01:43:30;;;;;;;28.90;15.40;;;6.80;99.90;;;;;;5033317;28;20447;-78
2022/12/07 01:45:56;;;;;;;29.00;15.77;;;6.90;99.90;;;;;;5032224;28;20026;-79
2022/12/07 01:48:39;;;;;;;27.67;15.25;;;7.10;99.90;;;;;;5034195;28;20106;-78
2022/12/07 01:51:10;;;;;;;26.45;14.27;;;7.10;99.90;;;;;;5029540;28;20034;-79
2022/12/07 01:53:41;;;;;;;27.65;14.77;;;7.00;99.90;;;;;;5030776;28;20130;-79
2022/12/07 01:56:10;;;;;;;30.20;14.63;;;7.00;99.90;;;;;;5033527;28;20044;-77
2022/12/07 01:58:37;;;;;;;26.02;14.32;;;7.00;99.90;;;;;;5032463;28;20030;-77
2022/12/07 02:01:03;;;;;;;29.15;14.68;;;7.00;99.90;;;;;;5032239;28;20041;-78
2022/12/07 02:03:37;;;;;;;27.38;14.23;;;7.10;99.90;;;;;;5033399;28;20025;-77
2022/12/07 02:06:05;;;;;;;24.90;13.40;;;7.10;99.90;;;;;;5032881;28;20034;-78
2022/12/07 02:08:31;;;;;;;33.00;14.35;;;7.20;99.90;;;;;;5032945;28;20029;-76
2022/12/07 02:10:57;;;;;;;24.65;13.80;;;7.10;99.90;;;;;;5032934;28;20025;-77
2022/12/07 02:13:29;;;;;;;25.35;13.60;;;6.80;99.90;;;;;;5033111;28;20057;-77
2022/12/07 02:16:13;;;;;;;24.50;13.98;;;6.90;99.90;;;;;;5032924;28;20034;-76
2022/12/07 02:18:53;;;;;;;24.48;12.77;;;6.80;99.90;;;;;;5031794;28;20025;-77
2022/12/07 02:21:40;;;;;;;26.13;13.57;;;6.80;99.90;;;;;;5033538;28;20061;-77
2022/12/07 02:24:33;;;;;;;34.75;17.27;;;6.70;99.90;;;;;;5028616;28;20053;-76
2022/12/07 02:27:26;;;;;;;22.23;12.25;;;6.70;99.90;;;;;;5032955;28;20061;-77
2022/12/07 02:30:01;;;;;;;24.92;12.50;;;6.80;99.90;;;;;;5033055;28;20038;-77
2022/12/07 02:32:39;;;;;;;27.50;14.48;;;6.70;99.90;;;;;;5032642;28;20356;-77
2022/12/07 02:35:17;;;;;;;25.08;13.27;;;6.80;99.90;;;;;;5030448;28;20091;-77
2022/12/07 02:37:48;;;;;;;29.13;14.63;;;6.70;99.90;;;;;;5011750;28;20468;-77
2022/12/07 02:40:31;;;;;;;23.38;13.50;;;6.70;99.90;;;;;;5013103;28;20038;-77
2022/12/07 02:43:17;;;;;;;21.25;12.40;;;6.70;99.90;;;;;;5012654;28;20049;-78
2022/12/07 02:45:44;;;;;;;24.77;12.15;;;6.60;99.90;;;;;;5011679;28;20050;-76
2022/12/07 02:48:13;;;;;;;24.85;13.35;;;6.70;99.90;;;;;;5013269;28;20036;-76
2022/12/07 02:50:43;;;;;;;24.85;13.57;;;6.50;99.90;;;;;;5012795;28;20493;-77
2022/12/07 02:53:31;;;;;;;25.35;12.65;;;6.60;99.90;;;;;;5011629;28;20034;-76
2022/12/07 02:55:58;;;;;;;25.95;12.95;;;6.60;99.90;;;;;;5011549;28;20064;-75
2022/12/07 02:58:46;;;;;;;21.40;11.50;;;6.60;99.90;;;;;;5011444;28;20045;-77
2022/12/07 03:01:14;;;;;;;20.77;11.88;;;6.50;99.90;;;;;;5012371;28;20030;-77
2022/12/07 03:03:46;;;;;;;19.63;11.60;;;6.60;99.90;;;;;;5012369;28;20025;-77
2022/12/07 03:06:23;;;;;;;17.75;11.00;;;6.50;99.90;;;;;;5012820;28;20025;-77
2022/12/07 03:09:01;;;;;;;20.27;11.30;;;6.60;99.90;;;;;;5011246;28;20046;-76
2022/12/07 03:11:46;;;;;;;29.10;12.60;;;6.50;99.90;;;;;;5012063;28;20101;-78
2022/12/07 03:14:34;;;;;;;21.27;11.52;;;6.50;99.90;;;;;;5011105;28;20122;-77
2022/12/07 03:17:16;;;;;;;19.55;11.57;;;6.50;99.90;;;;;;5012186;28;20026;-77
2022/12/07 03:19:44;;;;;;;20.38;11.98;;;6.50;99.90;;;;;;5012243;28;20049;-78
2022/12/07 03:22:12;;;;;;;21.80;10.95;;;6.60;99.90;;;;;;5010902;28;20123;-76
2022/12/07 03:24:52;;;;;;;24.70;10.75;;;6.60;99.90;;;;;;5011555;28;20053;-79
2022/12/07 03:27:28;;;;;;;19.45;11.32;;;6.50;99.90;;;;;;5012556;28;20038;-76
2022/12/07 03:30:00;;;;;;;21.27;10.68;;;6.50;99.90;;;;;;5008325;28;20042;-77
2022/12/07 03:32:32;;;;;;;18.67;10.68;;;6.60;99.90;;;;;;5008938;28;20036;-77
2022/12/07 03:35:12;;;;;;;20.75;10.93;;;6.60;99.90;;;;;;5012307;28;20494;-78
2022/12/07 03:37:48;;;;;;;19.00;10.27;;;6.40;99.90;;;;;;5011816;28;20033;-77
2022/12/07 03:40:39;;;;;;;20.77;8.40;;;6.40;99.90;;;;;;5011751;28;20107;-77
2022/12/07 03:43:05;;;;;;;19.77;8.88;;;6.40;99.90;;;;;;5010560;28;20034;-76
2022/12/07 03:45:43;;;;;;;20.40;8.63;;;6.40;99.90;;;;;;5011702;28;20036;-77
2022/12/07 03:49:10;;;;;;;23.83;8.90;;;6.50;99.90;;;;;;5012401;28;20029;-76
2022/12/07 03:51:50;;;;;;;;;;;6.60;99.90;;;;;;4973154;28;20087;-76
2022/12/07 03:54:31;;;;;;;15.32;8.10;;;6.60;99.90;;;;;;5012041;28;20009;-76
2022/12/07 03:56:58;;;;;;;20.27;8.60;;;6.60;99.90;;;;;;5011728;28;20041;-75
2022/12/07 03:59:25;;;;;;;21.73;9.10;;;6.60;99.90;;;;;;5011583;28;20084;-77
2022/12/07 04:01:57;;;;;;;18.50;8.65;;;6.70;99.90;;;;;;5011693;28;20276;-76
2022/12/07 04:04:25;;;;;;;20.65;8.32;;;6.80;99.90;;;;;;5011629;28;20353;-76
2022/12/07 04:06:51;;;;;;;17.10;8.52;;;6.80;99.90;;;;;;5010436;28;20033;-75
2022/12/07 04:09:17;;;;;;;19.95;8.60;;;6.70;99.90;;;;;;5011846;28;20100;-77
2022/12/07 04:11:43;;;;;;;13.50;7.60;;;6.60;99.90;;;;;;5010298;28;20207;-75
2022/12/07 04:14:18;;;;;;;16.38;8.68;;;6.50;99.90;;;;;;5011408;28;20092;-76
2022/12/07 04:16:45;;;;;;;18.80;8.63;;;6.70;99.90;;;;;;5010313;28;20095;-75
2022/12/07 04:19:11;;;;;;;15.75;7.90;;;6.70;99.90;;;;;;5011442;28;20443;-76
2022/12/07 04:21:37;;;;;;;18.05;7.88;;;6.70;99.90;;;;;;5011383;28;20073;-76
2022/12/07 04:24:04;;;;;;;16.25;8.93;;;6.60;99.90;;;;;;5010743;28;20030;-76
2022/12/07 04:26:29;;;;;;;17.45;8.45;;;6.50;99.90;;;;;;5011296;28;20030;-76
2022/12/07 04:28:55;;;;;;;17.88;7.95;;;6.50;99.90;;;;;;5011172;28;20099;-77
2022/12/07 04:31:21;;;;;;;16.77;8.38;;;6.40;99.90;;;;;;5011183;28;20137;-76
2022/12/07 04:33:46;;;;;;;15.50;9.02;;;6.40;99.90;;;;;;5010885;28;20033;-75
2022/12/07 04:36:12;;;;;;;21.23;9.18;;;6.40;99.90;;;;;;5013895;28;20030;-76
2022/12/07 04:38:37;;;;;;;17.23;8.02;;;6.50;99.90;;;;;;5015299;28;20034;-76
2022/12/07 04:41:07;;;;;;;20.80;9.20;;;6.50;99.90;;;;;;5015151;28;20041;-76
2022/12/07 04:43:34;;;;;;;21.40;8.23;;;6.50;99.90;;;;;;5015135;28;20490;-77
2022/12/07 04:46:00;;;;;;;27.05;10.10;;;6.60;99.90;;;;;;5013745;28;20132;-76
2022/12/07 04:48:26;;;;;;;15.77;8.27;;;6.50;99.90;;;;;;5014869;28;20446;-74
2022/12/07 04:50:52;;;;;;;19.60;8.40;;;6.50;99.90;;;;;;5015357;28;20022;-76
2022/12/07 04:53:18;;;;;;;19.67;8.40;;;6.60;99.90;;;;;;5014539;28;20046;-77
2022/12/07 04:55:44;;;;;;;16.98;8.23;;;6.60;99.90;;;;;;5014747;28;20045;-77
2022/12/07 04:58:10;;;;;;;18.42;7.72;;;6.40;99.90;;;;;;5014963;28;20042;-77
2022/12/07 05:00:36;;;;;;;18.63;8.60;;;6.40;99.90;;;;;;5014618;28;20022;-76
2022/12/07 05:03:01;;;;;;;18.33;8.88;;;6.40;99.90;;;;;;5014205;28;20384;-77
2022/12/07 05:05:27;;;;;;;16.15;8.45;;;6.40;99.90;;;;;;5014489;28;20088;-77
2022/12/07 05:07:53;;;;;;;17.67;8.43;;;6.30;99.90;;;;;;5014572;28;20034;-77
2022/12/07 05:10:19;;;;;;;19.13;7.85;;;6.20;99.90;;;;;;5014408;28;20029;-75
2022/12/07 05:12:45;;;;;;;17.80;7.85;;;6.30;99.90;;;;;;5014130;28;20041;-74
2022/12/07 05:15:12;;;;;;;24.40;8.52;;;6.40;99.90;;;;;;5014766;28;20363;-76
2022/12/07 05:17:38;;;;;;;18.60;8.77;;;6.40;99.90;;;;;;5014315;28;20030;-75
2022/12/07 05:20:04;;;;;;;16.60;7.43;;;6.30;99.90;;;;;;5014154;28;20052;-76
2022/12/07 05:22:30;;;;;;;18.50;8.35;;;6.40;99.90;;;;;;5014040;28;20037;-76
2022/12/07 05:24:56;;;;;;;15.48;7.95;;;6.40;99.90;;;;;;5014174;28;20467;-75
2022/12/07 05:27:21;;;;;;;19.92;8.00;;;6.40;99.90;;;;;;5014564;28;20034;-75
2022/12/07 05:29:49;;;;;;;17.38;8.52;;;6.40;99.90;;;;;;5013755;28;20165;-75
2022/12/07 05:32:14;;;;;;;14.97;7.40;;;6.60;99.90;;;;;;5013948;28;20030;-75
2022/12/07 05:34:40;;;;;;;20.35;8.00;;;6.50;99.90;;;;;;5012919;28;20256;-76
2022/12/07 05:37:06;;;;;;;15.70;8.27;;;6.50;99.90;;;;;;5013920;28;20022;-76
2022/12/07 05:39:31;;;;;;;18.10;8.10;;;6.30;99.90;;;;;;5012775;28;20030;-76
2022/12/07 05:42:12;;;;;;;15.98;7.82;;;6.30;99.90;;;;;;5014110;28;20355;-75
2022/12/07 05:44:39;;;;;;;20.13;8.60;;;6.40;99.90;;;;;;5013948;28;20085;-75
2022/12/07 05:47:04;;;;;;;19.20;8.15;;;6.50;99.90;;;;;;5013464;28;20084;-76
2022/12/07 05:49:30;;;;;;;15.27;7.30;;;6.50;99.90;;;;;;5013795;28;20432;-76
2022/12/07 05:51:56;;;;;;;22.80;8.48;;;6.30;99.90;;;;;;5012523;28;20053;-76
2022/12/07 05:54:22;;;;;;;13.32;6.65;;;6.40;99.90;;;;;;5012909;28;20112;-77
2022/12/07 05:56:47;;;;;;;15.35;7.30;;;6.30;99.90;;;;;;5012400;28;20049;-74
2022/12/07 05:59:23;;;;;;;21.67;7.60;;;6.20;99.90;;;;;;5013548;28;20034;-76
2022/12/07 06:01:51;;;;;;;12.07;6.78;;;6.30;99.90;;;;;;5013438;28;20034;-77
2022/12/07 06:04:17;;;;;;;17.33;7.47;;;6.20;99.90;;;;;;5013333;28;20456;-76
2022/12/07 06:06:43;;;;;;;15.80;7.18;;;6.20;99.90;;;;;;5012274;28;20038;-76
2022/12/07 06:09:10;;;;;;;13.50;6.85;;;6.30;99.90;;;;;;5013869;28;20424;-77
2022/12/07 06:14:20;;;;;;;16.20;7.05;;;6.20;99.90;;;;;;5013424;28;20479;-76
2022/12/07 06:16:46;;;;;;;15.25;6.43;;;6.30;99.90;;;;;;5013557;28;20101;-77
2022/12/07 06:19:12;;;;;;;13.23;6.25;;;6.20;99.90;;;;;;5013090;28;20121;-77
2022/12/07 06:21:37;;;;;;;10.45;5.97;;;6.30;99.90;;;;;;5013051;28;20137;-75
2022/12/07 06:24:04;;;;;;;12.77;5.95;;;6.30;99.90;;;;;;5013785;28;20053;-77
2022/12/07 06:26:30;;;;;;;13.77;6.35;;;6.40;99.90;;;;;;5012165;28;20052;-77
2022/12/07 06:28:55;;;;;;;14.35;6.15;;;6.40;99.90;;;;;;5012817;28;20525;-77
2022/12/07 06:31:21;;;;;;;13.80;5.28;;;6.40;99.90;;;;;;5012897;28;20084;-76
2022/12/07 06:33:47;;;;;;;15.00;5.35;;;6.40;99.90;;;;;;5012944;28;20054;-77
2022/12/07 06:36:13;;;;;;;14.48;5.55;;;6.40;99.90;;;;;;5013309;28;20040;-76
2022/12/07 06:38:39;;;;;;;13.07;5.70;;;6.50;99.90;;;;;;5011610;28;20510;-76
2022/12/07 06:41:06;;;;;;;15.77;5.30;;;6.40;99.90;;;;;;5012979;28;20034;-76
2022/12/07 06:43:32;;;;;;;11.80;5.15;;;6.40;99.90;;;;;;5012597;28;20408;-76
2022/12/07 06:45:58;;;;;;;13.50;4.93;;;6.30;99.90;;;;;;5012680;28;20521;-76
2022/12/07 06:48:23;;;;;;;11.55;4.05;;;6.10;99.90;;;;;;5012667;28;20018;-77
2022/12/07 06:50:49;;;;;;;12.00;3.85;;;6.20;99.90;;;;;;5013159;28;20436;-74
2022/12/07 06:53:15;;;;;;;13.00;4.47;;;6.20;99.90;;;;;;5011612;28;20056;-76
2022/12/07 06:55:41;;;;;;;11.65;4.25;;;6.10;99.90;;;;;;5011307;28;20444;-77
2022/12/07 06:58:07;;;;;;;14.55;4.60;;;6.10;99.90;;;;;;5011759;28;20096;-77
2022/12/07 07:00:34;;;;;;;11.52;4.35;;;6.10;99.90;;;;;;5012663;28;20030;-79
2022/12/07 07:03:00;;;;;;;11.93;4.10;;;6.10;99.90;;;;;;5011829;28;20491;-77
2022/12/07 07:05:26;;;;;;;9.95;3.63;;;6.10;99.90;;;;;;5013395;28;20040;-77
2022/12/07 07:07:52;;;;;;;8.07;3.92;;;6.10;99.90;;;;;;5013288;28;20031;-78
2022/12/07 07:10:17;;;;;;;11.63;3.55;;;6.20;99.90;;;;;;5012357;28;20172;-77
2022/12/07 07:12:43;;;;;;;13.90;3.70;;;6.30;99.90;;;;;;5011056;28;20054;-81
2022/12/07 07:15:09;;;;;;;17.08;3.70;;;6.30;99.90;;;;;;5011526;28;20036;-78
2022/12/07 07:17:35;;;;;;;8.63;3.47;;;6.20;99.90;;;;;;5011179;28;20515;-77
2022/12/07 07:20:01;;;;;;;14.55;3.70;;;6.30;99.90;;;;;;5012178;28;20080;-76
2022/12/07 07:22:26;;;;;;;11.65;4.18;;;6.30;99.90;;;;;;5011914;28;20483;-78
2022/12/07 07:24:52;;;;;;;12.77;3.65;;;6.40;99.90;;;;;;5012093;28;20022;-78
2022/12/07 07:27:18;;;;;;;12.55;3.72;;;6.30;99.90;;;;;;5018977;28;20037;-77
2022/12/07 07:29:44;;;;;;;9.57;3.58;;;6.30;99.90;;;;;;5032108;28;20044;-78
2022/12/07 07:32:09;;;;;;;10.05;3.55;;;6.30;99.90;;;;;;5031962;28;20040;-78
2022/12/07 07:34:35;;;;;;;10.48;3.08;;;6.30;99.90;;;;;;5030624;28;20390;-79
2022/12/07 07:37:01;;;;;;;13.23;4.18;;;6.30;99.90;;;;;;5031499;28;20034;-78
2022/12/07 07:39:26;;;;;;;10.85;3.60;;;6.30;99.90;;;;;;5031945;28;20060;-78
2022/12/07 07:41:52;;;;;;;16.65;4.95;;;6.40;99.90;;;;;;5032703;28;20432;-77
2022/12/07 07:44:19;;;;;;;15.13;4.05;;;6.40;99.90;;;;;;5031208;28;20095;-77
2022/12/07 07:46:44;;;;;;;11.23;3.15;;;6.40;99.90;;;;;;5032269;28;20089;-76
2022/12/07 07:49:11;;;;;;;13.07;3.60;;;6.40;99.90;;;;;;5031925;28;20042;-77
2022/12/07 07:51:37;;;;;;;5.80;3.22;;;6.50;99.90;;;;;;5030852;28;20034;-75
2022/12/07 07:54:04;;;;;;;8.77;2.95;;;6.50;99.90;;;;;;5033294;28;20484;-77
2022/12/07 07:56:29;;;;;;;11.75;3.58;;;6.40;99.90;;;;;;5032577;28;20026;-78
2022/12/07 07:58:55;;;;;;;14.50;3.10;;;6.50;99.90;;;;;;5031686;28;20029;-79
2022/12/07 08:01:21;;;;;;;11.35;2.67;;;6.50;99.90;;;;;;5033440;28;20041;-80
2022/12/07 08:03:48;;;;;;;9.88;2.05;;;6.50;99.90;;;;;;5031529;28;20025;-79
2022/12/07 08:06:13;;;;;;;8.57;3.08;;;6.50;99.90;;;;;;5032281;28;20038;-77
2022/12/07 08:08:39;;;;;;;5.63;1.85;;;6.40;99.90;;;;;;5030249;28;20420;-79
2022/12/07 08:11:06;;;;;;;8.55;2.50;;;6.60;99.90;;;;;;5031319;28;20251;-77
2022/12/07 08:13:32;;;;;;;4.63;2.07;;;6.60;99.90;;;;;;5030324;28;20460;-77
2022/12/07 08:16:02;;;;;;;6.38;2.20;;;6.60;99.90;;;;;;5032180;28;20072;-77
2022/12/07 08:18:28;;;;;;;7.43;2.28;;;6.60;99.90;;;;;;5031168;28;20025;-76
2022/12/07 08:21:00;;;;;;;4.60;2.05;;;6.60;99.90;;;;;;5031002;28;20045;-76
2022/12/07 08:23:26;;;;;;;6.40;1.90;;;6.40;99.90;;;;;;5030138;28;20068;-77
2022/12/07 08:25:52;;;;;;;15.23;2.90;;;6.40;99.90;;;;;;5030642;28;20451;-77
2022/12/07 08:28:18;;;;;;;7.90;1.90;;;6.50;99.90;;;;;;5031068;28;20124;-78
2022/12/07 08:30:43;;;;;;;8.05;1.90;;;6.30;99.90;;;;;;5031443;28;20038;-76
2022/12/07 08:33:10;;;;;;;4.43;1.70;;;6.40;99.90;;;;;;5031685;28;20025;-78
2022/12/07 08:35:35;;;;;;;12.07;1.92;;;6.50;99.90;;;;;;5031026;28;20080;-77
2022/12/07 08:38:02;;;;;;;10.63;2.15;;;6.60;99.90;;;;;;5032611;28;20474;-76
2022/12/07 08:40:28;;;;;;;5.13;1.98;;;6.60;99.90;;;;;;5031096;28;20128;-78
2022/12/07 08:42:54;;;;;;;8.68;1.80;;;6.60;99.90;;;;;;5032127;28;20065;-77
2022/12/07 08:45:21;;;;;;;5.20;1.55;;;6.60;99.90;;;;;;5031912;28;20045;-77
2022/12/07 08:48:24;;;;;;;15.23;2.30;;;6.70;99.90;;;;;;5030733;28;20075;-76
2022/12/07 08:50:50;;;;;;;8.25;2.05;;;6.70;99.90;;;;;;5018704;28;20475;-77
2022/12/07 08:53:16;;;;;;;8.75;1.67;;;6.70;99.90;;;;;;5031385;28;20518;-77
2022/12/07 08:55:46;;;;;;;6.47;2.53;;;6.50;99.90;;;;;;5032239;28;20283;-77
2022/12/07 08:58:12;;;;;;;9.68;1.63;;;6.70;99.90;;;;;;5029554;28;20384;-77
2022/12/07 09:00:38;;;;;;;4.75;1.55;;;6.60;99.90;;;;;;5030387;28;20120;-78
2022/12/07 09:03:04;;;;;;;5.13;1.42;;;6.60;99.90;;;;;;5032239;28;20094;-77
2022/12/07 09:05:29;;;;;;;6.57;1.23;;;6.60;99.90;;;;;;5031406;28;20021;-77
2022/12/07 09:07:59;;;;;;;15.45;2.25;;;6.60;99.90;;;;;;5031385;28;20049;-77
2022/12/07 09:10:25;;;;;;;12.35;1.55;;;6.60;99.90;;;;;;5031797;28;20371;-77
2022/12/07 09:12:51;;;;;;;6.10;1.48;;;6.60;99.90;;;;;;5031577;28;20041;-78
2022/12/07 09:15:17;;;;;;;5.30;1.40;;;6.50;99.90;;;;;;5032713;28;20087;-78
2022/12/07 09:17:43;;;;;;;6.53;1.23;;;6.60;99.90;;;;;;5031884;28;20057;-78
2022/12/07 09:20:09;;;;;;;5.80;1.75;;;6.70;99.90;;;;;;5030634;28;20089;-78
2022/12/07 09:22:35;;;;;;;6.55;1.35;;;6.70;99.90;;;;;;5033305;28;20069;-78
2022/12/07 09:25:02;;;;;;;4.70;1.48;;;6.60;99.90;;;;;;5035284;28;20468;-80
2022/12/07 09:27:28;;;;;;;5.53;1.10;;;6.60;99.90;;;;;;5034966;28;20021;-78
2022/12/07 09:29:54;;;;;;;4.32;1.05;;;6.70;99.90;;;;;;5034496;28;20033;-78
2022/12/07 09:32:20;;;;;;;5.75;1.33;;;6.70;99.90;;;;;;5034238;28;20033;-78
2022/12/07 09:34:45;;;;;;;3.58;1.35;;;6.80;99.90;;;;;;5034128;28;20129;-78
2022/12/07 09:37:11;;;;;;;7.30;1.30;;;6.60;99.90;;;;;;5034820;28;20037;-79
2022/12/07 09:39:41;;;;;;;5.28;1.42;;;6.50;99.90;;;;;;5035240;28;20026;-77
2022/12/07 09:42:07;;;;;;;6.57;0.88;;;6.60;99.90;;;;;;5035776;28;20025;-79
2022/12/07 09:44:34;;;;;;;5.68;1.25;;;6.60;99.90;;;;;;5034927;28;20026;-79
2022/12/07 09:47:01;;;;;;;5.35;1.20;;;6.60;99.90;;;;;;5033892;28;20021;-79
2022/12/07 09:49:30;;;;;;;4.28;1.10;;;6.80;99.90;;;;;;5034900;28;20034;-79
2022/12/07 09:52:01;;;;;;;7.85;1.20;;;6.90;99.90;;;;;;5034254;28;20073;-79
2022/12/07 09:54:27;;;;;;;5.45;1.23;;;7.00;99.90;;;;;;5034202;28;20029;-79
2022/12/07 09:56:53;;;;;;;6.43;1.55;;;7.20;99.90;;;;;;5034315;28;20448;-79
2022/12/07 09:59:19;;;;;;;4.22;0.90;;;7.10;99.90;;;;;;5034161;28;20033;-77
2022/12/07 10:01:47;;;;;;;7.60;1.25;;;7.20;99.90;;;;;;5034661;28;20180;-78
2022/12/07 10:04:22;;;;;;;5.35;1.10;;;7.10;99.90;;;;;;5034342;28;20371;-79
2022/12/07 10:06:50;;;;;;;4.95;0.98;;;7.10;99.90;;;;;;5033376;28;20048;-80
2022/12/07 10:09:17;;;;;;;;;;;7.20;99.90;;;;;;5033865;28;20037;-79
2022/12/07 10:12:09;;;;;;;4.43;1.17;;;7.20;99.90;;;;;;5031954;28;19921;-80
2022/12/07 10:14:54;;;;;;;10.48;1.35;;;7.40;99.90;;;;;;5031751;28;20053;-79
2022/12/07 10:17:25;;;;;;;6.85;1.27;;;7.60;99.90;;;;;;5031871;28;20474;-78
2022/12/07 10:19:51;;;;;;;9.35;1.27;;;7.80;99.90;;;;;;5033342;28;20043;-80
2022/12/07 10:22:17;;;;;;;5.78;1.48;;;7.70;99.90;;;;;;5031581;28;20038;-80
2022/12/07 10:24:46;;;;;;;6.93;1.08;;;7.70;99.90;;;;;;5032875;28;20033;-81
2022/12/07 10:27:31;;;;;;;4.10;1.15;;;7.60;99.90;;;;;;5032232;28;20167;-81
2022/12/07 10:29:58;;;;;;;7.38;1.25;;;7.50;99.90;;;;;;5033065;28;20065;-80
2022/12/07 10:32:34;;;;;;;4.03;0.80;;;7.10;99.90;;;;;;5033987;28;20406;-79
2022/12/07 10:35:23;;;;;;;5.22;1.05;;;7.10;99.90;;;;;;5033874;28;20037;-81
2022/12/07 10:37:51;;;;;;;6.72;1.40;;;7.10;99.90;;;;;;5033480;28;20025;-80
2022/12/07 10:40:33;;;;;;;3.58;1.25;;;7.10;99.90;;;;;;5032559;28;20132;-77
2022/12/07 10:43:12;;;;;;;8.18;1.33;;;7.10;99.90;;;;;;5032708;28;20371;-81
2022/12/07 10:46:07;;;;;;;8.13;1.25;;;7.20;99.90;;;;;;5032606;28;20033;-80
2022/12/07 10:48:54;;;;;;;6.03;1.10;;;7.10;99.90;;;;;;5031553;28;20025;-79
2022/12/07 10:51:35;;;;;;;7.72;1.33;;;7.20;99.90;;;;;;5034984;28;20032;-80
2022/12/07 10:54:18;;;;;;;7.85;1.58;;;7.10;99.90;;;;;;5033496;28;20341;-80
2022/12/07 10:57:03;;;;;;;4.38;1.30;;;7.10;99.90;;;;;;5031725;28;20479;-79
2022/12/07 10:59:55;;;;;;;8.68;1.45;;;7.10;99.90;;;;;;5032842;28;20044;-79
2022/12/07 11:02:39;;;;;;;8.45;1.02;;;7.10;99.90;;;;;;5014056;28;20030;-79
2022/12/07 11:05:30;;;;;;;8.70;1.27;;;7.00;99.90;;;;;;5027377;28;20100;-78
2022/12/07 11:07:56;;;;;;;4.78;1.30;;;7.10;99.90;;;;;;5032951;28;20490;-79
2022/12/07 11:10:30;;;;;;;9.05;1.58;;;7.20;99.90;;;;;;5031766;28;20038;-79
2022/12/07 11:13:20;;;;;;;9.90;2.08;;;7.20;99.90;;;;;;5032294;28;20049;-79
2022/12/07 11:16:17;;;;;;;6.75;1.33;;;7.40;99.90;;;;;;5032578;28;20029;-79
2022/12/07 11:18:51;;;;;;;4.60;1.10;;;7.30;99.90;;;;;;5032753;28;20017;-79
2022/12/07 11:21:17;;;;;;;8.43;1.17;;;7.20;99.90;;;;;;5032910;28;20033;-80
2022/12/07 11:24:08;;;;;;;8.02;1.75;;;7.00;99.90;;;;;;5032259;28;20366;-81
2022/12/07 11:26:49;;;;;;;4.25;0.93;;;6.90;99.90;;;;;;5032551;28;20116;-78
2022/12/07 11:29:33;;;;;;;3.15;0.95;;;6.70;99.90;;;;;;5032089;28;20061;-78
2022/12/07 11:32:21;;;;;;;4.05;1.00;;;6.50;99.90;;;;;;5030914;28;20522;-78
2022/12/07 11:35:06;;;;;;;2.20;0.70;;;6.50;99.90;;;;;;5030972;28;20637;-81
2022/12/07 11:37:35;;;;;;;2.13;0.77;;;6.70;99.90;;;;;;5031894;28;20463;-79
2022/12/07 11:40:16;;;;;;;3.88;0.90;;;6.60;99.90;;;;;;5031407;28;20041;-80
2022/12/07 11:43:03;;;;;;;6.00;1.13;;;6.60;99.90;;;;;;5032420;28;20044;-77
2022/12/07 11:45:33;;;;;;;6.90;1.48;;;6.60;99.90;;;;;;5031103;28;20440;-77
2022/12/07 11:47:58;;;;;;;7.50;1.30;;;6.70;99.90;;;;;;5030824;28;20037;-75
2022/12/07 11:50:57;;;;;;;4.80;1.15;;;6.60;99.90;;;;;;5031555;28;20025;-77
2022/12/07 11:53:30;;;;;;;2.40;1.10;;;6.50;99.90;;;;;;5030489;28;20030;-77
2022/12/07 11:56:14;;;;;;;6.68;1.40;;;6.70;99.90;;;;;;5031508;28;20044;-77
2022/12/07 11:58:59;;;;;;;6.40;1.58;;;6.70;99.90;;;;;;5030216;28;20033;-77
2022/12/07 12:01:31;;;;;;;2.22;1.13;;;6.80;99.90;;;;;;5030195;28;20522;-77
2022/12/07 12:04:09;;;;;;;5.72;1.40;;;6.90;99.90;;;;;;5029844;28;20029;-76
2022/12/07 12:06:36;;;;;;;5.10;1.25;;;6.90;99.90;;;;;;5029967;28;20029;-77
2022/12/07 12:09:06;;;;;;;5.00;1.33;;;7.10;99.90;;;;;;5031642;28;20014;-76
2022/12/07 12:12:06;;;;;;;6.35;2.70;;;7.20;99.90;;;;;;5029914;28;20056;-77
2022/12/07 12:14:59;;;;;;;10.52;2.38;;;7.40;99.90;;;;;;5030508;28;20371;-77
2022/12/07 12:17:35;;;;;;;7.55;2.10;;;7.50;99.90;;;;;;5030734;28;20037;-78
2022/12/07 12:20:25;;;;;;;14.60;3.22;;;7.70;99.90;;;;;;5031931;28;20037;-77
2022/12/07 12:22:54;;;;;;;8.18;1.70;;;7.80;99.90;;;;;;5032070;28;20030;-78
2022/12/07 12:25:25;;;;;;;7.18;1.77;;;7.70;99.90;;;;;;5031974;28;20419;-77
2022/12/07 12:27:55;;;;;;;5.88;1.33;;;7.60;99.90;;;;;;5032060;28;20470;-77
2022/12/07 12:30:37;;;;;;;6.75;1.45;;;7.70;99.90;;;;;;5031573;28;20036;-77
2022/12/07 12:33:16;;;;;;;5.22;1.58;;;7.50;99.90;;;;;;5031314;28;20512;-78
2022/12/07 12:35:42;;;;;;;9.07;1.65;;;7.60;99.90;;;;;;5031882;28;20045;-77
2022/12/07 12:38:48;;;;;;;9.98;1.85;;;7.40;99.90;;;;;;5032236;28;20364;-77
2022/12/07 12:42:05;;;;;;;6.78;1.70;;;7.50;99.90;;;;;;5031436;28;20079;-77
2022/12/07 12:44:33;;;;;;;10.60;2.13;;;7.60;99.90;;;;;;5032643;28;20021;-79
2022/12/07 12:47:41;;;;;;;8.13;1.67;;;7.60;99.90;;;;;;5032968;28;20037;-78
2022/12/07 12:50:21;;;;;;;6.60;1.83;;;7.50;99.90;;;;;;5032945;28;20111;-78
2022/12/07 12:53:22;;;;;;;13.43;2.10;;;7.40;99.90;;;;;;5029625;28;20037;-79
2022/12/07 12:56:06;;;;;;;11.75;2.75;;;7.60;99.90;;;;;;5019362;28;20033;-77
2022/12/07 12:58:35;;;;;;;6.90;1.90;;;7.70;99.90;;;;;;5035224;28;20553;-78
2022/12/07 13:01:34;;;;;;;7.65;1.83;;;7.60;99.90;;;;;;5035302;28;20045;-79
2022/12/07 13:04:02;;;;;;;9.85;2.30;;;7.60;99.90;;;;;;5036137;28;20128;-78
2022/12/07 13:06:27;;;;;;;7.35;1.67;;;7.60;99.90;;;;;;5036880;28;20026;-78
2022/12/07 13:08:57;;;;;;;9.05;2.03;;;7.60;99.90;;;;;;5038039;28;20097;-77
2022/12/07 13:11:44;;;;;;;7.88;2.05;;;7.40;99.90;;;;;;5037826;28;20053;-77
2022/12/07 13:14:56;;;;;;;12.30;2.93;;;7.40;99.90;;;;;;5034954;28;20053;-78